Flight Track Log - Related Links

Times and Time Zones

All times are in EDT time to prevent confusion due to time zone crossing. See the AAR8736 flight status page for this flight to view local times or setup timezone preferences in your user account.

Time Position Orientation Groundspeed Altitude Reporting Facility
EDT Latitude Longitude Course Direction KTS MPH feet Rate Location/Type
Sun 03:50:00 AM 35.5767 127.3975 346° North  Level Estimated
Sun 03:51:00 AM 35.6503 127.3755 346° North  Level Estimated
Sun 03:52:00 AM 35.7240 127.3535 346° North  Level Estimated
Sun 03:53:00 AM 35.7977 127.3314 346° North  Level Estimated
Sun 03:54:00 AM 35.8713 127.3093 346° North  Level Estimated
Sun 03:55:00 AM 35.9450 127.2871 346° North  Level Estimated
Sun 03:56:00 AM 36.0186 127.2649 346° North  Level Estimated
Sun 03:57:00 AM 36.0922 127.2427 346° North  Level Estimated
Sun 03:58:00 AM 36.1659 127.2204 346° North  Level Estimated
Sun 03:59:00 AM 36.2395 127.1981 346° North  Level Estimated
Sun 04:00:00 AM 36.3131 127.1757 346° North  Level Estimated
Sun 04:01:00 AM 36.3868 127.1533 346° North  Level Estimated
Sun 04:02:00 AM 36.4604 127.1308 346° North  Level Estimated
Sun 04:03:00 AM 36.5340 127.1083 346° North  Level Estimated
Sun 04:04:00 AM 36.6076 127.0858 346° North  Level Estimated
Sun 04:05:00 AM 36.6812 127.0632 346° North  Level Estimated
Sun 04:06:00 AM 36.7548 127.0406 346° North  Level Estimated
Sun 04:07:00 AM 36.8284 127.0179 346° North  Level Estimated
Sun 04:07:13 AM 36.9810 127.2980 346° North 308 354 12,200  Level FlightAware ADS-B
Sun 04:08:00 AM 36.9020 126.9952 346° North  Level Estimated
Sun 04:09:00 AM 36.9756 126.9724 346° North  Level Estimated
Sun 04:10:00 AM 37.0492 126.9496 346° North  Level Estimated
Sun 04:10:14 AM 37.1760 127.3490 12° North 286 329 8,700  Level FlightAware ADS-B
Sun 04:10:41 AM 37.1910 127.3160 300° West 286 329 8,700  Level FlightAware ADS-B
Sun 04:11:18 AM 37.2120 127.2710 300° West 286 329 8,700 -1,524 Level FlightAware ADS-B
Sun 04:11:44 AM 37.2370 127.2250 304° West 244 281 7,100 -1,846 Descending FlightAware ADS-B
Sun 04:12:10 AM 37.2520 127.1950 302° West 222 255 7,100  Level FlightAware ADS-B
Sun 04:12:25 AM 37.2590 127.1800 300° West 210 242 7,100  Level FlightAware ADS-B
Sun 04:12:54 AM 37.2740 127.1500 302° West 200 230 7,100  Level FlightAware ADS-B
Sun 04:13:20 AM 37.2880 127.1250 305° West 204 235 7,100 -764 Level FlightAware ADS-B
Sun 04:13:49 AM 37.3080 127.1010 316° Northwest 207 238 6,400 -1,200 Descending FlightAware ADS-B
Sun 04:14:15 AM 37.3260 127.0790 316° Northwest 209 241 6,000 -857 Descending FlightAware ADS-B
Sun 04:14:45 AM 37.3460 127.0540 315° West 200 230 5,600 -822 Descending FlightAware ADS-B
Sun 04:17:00 AM 37.4676 126.9034 316° Northwest  Level Estimated
Sun 04:18:00 AM 37.5216 126.8363 315° West  Level Estimated
Sun 04:19:00 AM 37.5583 126.7906 315° West  Level Estimated
Sun 04:19:58 AM 37.5160 126.8470 288° West 137 158 1,300  Level FlightAware ADS-B
Sun 04:20:00 AM 37.5583 126.7906 288° West  Level Estimated
Sun 04:22:00 AM 37.5583 126.7906 313° West  Level Estimated
Sun 04:23:00 AM 37.5583 126.7906 288° West  Level Estimated
Sun 04:24:00 AM 37.5583 126.7906 288° West  Level Estimated
Sun 04:25:00 AM 37.5583 126.7906 288° West  Level Estimated
Sun 04:26:00 AM 37.5583 126.7906 288° West  Level Estimated
Sun 04:27:00 AM 37.5583 126.7906 288° West  Level Estimated
Sun 04:28:00 AM 37.5583 126.7906 288° West  Level Estimated
Sun 04:29:00 AM 37.5583 126.7906 288° West  Level Estimated
Sun 04:30:00 AM 37.5583 126.7906 288° West  Level Estimated

Login

Don't have an account? Register now (free) for customized features, flight alerts, and more!